createdAt,value
2022-10-30T00:00:57.237Z,31.50
2022-10-30T00:03:25.174Z,30.17
2022-10-30T00:05:52.841Z,29.55
2022-10-30T00:08:21.940Z,30.30
2022-10-30T00:10:52.667Z,30.57
2022-10-30T00:13:20.625Z,28.85
2022-10-30T00:15:52.615Z,32.92
2022-10-30T00:18:21.064Z,29.35
2022-10-30T00:20:49.052Z,29.02
2022-10-30T00:23:16.770Z,29.00
2022-10-30T00:25:44.433Z,30.23
2022-10-30T00:28:11.857Z,29.35
2022-10-30T00:30:39.677Z,29.73
2022-10-30T00:33:07.586Z,30.35
2022-10-30T00:35:35.080Z,30.97
2022-10-30T00:38:03.319Z,31.02
2022-10-30T00:40:31.123Z,29.73
2022-10-30T00:42:58.642Z,29.37
2022-10-30T00:45:26.176Z,28.15
2022-10-30T00:47:57.817Z,27.27
2022-10-30T00:50:35.548Z,28.62
2022-10-30T00:53:06.699Z,28.87
2022-10-30T00:55:39.606Z,27.10
2022-10-30T00:58:10.178Z,27.58
2022-10-30T01:00:39.237Z,27.87
2022-10-30T01:03:06.996Z,28.25
2022-10-30T01:05:35.977Z,28.60
2022-10-30T01:08:04.721Z,29.85
2022-10-30T01:10:32.712Z,29.58
2022-10-30T01:13:00.687Z,29.37
2022-10-30T01:15:31.399Z,28.87
2022-10-30T01:18:16.555Z,28.95
2022-10-30T01:21:04.941Z,27.87
2022-10-30T01:23:44.755Z,28.08
2022-10-30T01:26:21.555Z,28.90
2022-10-30T01:29:26.494Z,27.85
2022-10-30T01:32:13.629Z,27.98
2022-10-30T01:34:51.875Z,28.12
2022-10-30T01:37:21.001Z,29.23
2022-10-30T01:39:48.919Z,29.07
2022-10-30T01:42:46.231Z,29.20
2022-10-30T01:45:38.637Z,27.55
2022-10-30T01:48:18.274Z,28.20
2022-10-30T01:50:49.079Z,31.50
2022-10-30T01:53:33.587Z,26.43
2022-10-30T01:56:41.683Z,29.00
2022-10-30T01:59:15.239Z,28.80
2022-10-30T02:01:43.674Z,26.98
2022-10-30T02:04:12.731Z,27.27
2022-10-30T02:06:40.617Z,29.47
2022-10-30T02:09:09.435Z,30.10
2022-10-30T02:11:38.847Z,27.48
2022-10-30T02:14:07.518Z,27.25
2022-10-30T02:16:37.731Z,26.00
2022-10-30T02:19:07.600Z,27.67
2022-10-30T02:21:35.402Z,26.87
2022-10-30T02:24:02.951Z,26.83
2022-10-30T02:26:30.669Z,26.83
2022-10-30T02:28:58.102Z,27.80
2022-10-30T02:31:25.565Z,26.97
2022-10-30T02:33:53.557Z,26.00
2022-10-30T02:36:21.116Z,27.83
2022-10-30T02:38:48.906Z,27.90
2022-10-30T02:41:16.766Z,25.17
2022-10-30T02:43:44.259Z,25.43
2022-10-30T02:46:11.712Z,25.40
2022-10-30T02:48:39.613Z,25.45
2022-10-30T02:51:07.095Z,25.27
2022-10-30T02:53:34.726Z,25.23
2022-10-30T02:56:11.119Z,24.50
2022-10-30T02:58:40.711Z,23.17
2022-10-30T03:01:17.287Z,26.17
2022-10-30T03:03:45.468Z,24.63
2022-10-30T03:06:15.703Z,23.50
2022-10-30T03:08:43.721Z,23.23
2022-10-30T03:11:16.332Z,24.52
2022-10-30T03:13:45.145Z,23.65
2022-10-30T03:16:21.671Z,24.73
2022-10-30T03:18:50.586Z,23.52
2022-10-30T03:21:20.957Z,23.40
2022-10-30T03:23:50.575Z,23.45
2022-10-30T03:26:19.228Z,24.58
2022-10-30T03:28:47.289Z,23.38
2022-10-30T03:31:17.433Z,22.92
2022-10-30T03:33:45.500Z,23.20
2022-10-30T03:36:14.184Z,21.65
2022-10-30T03:38:42.585Z,23.20
2022-10-30T03:41:10.513Z,21.60
2022-10-30T03:43:38.164Z,22.25
2022-10-30T03:46:05.941Z,21.80
2022-10-30T03:48:34.688Z,22.62
2022-10-30T03:51:02.467Z,23.77
2022-10-30T03:53:30.454Z,22.95
2022-10-30T03:56:00.001Z,24.30
2022-10-30T03:58:29.571Z,23.67
2022-10-30T04:01:05.082Z,22.10
2022-10-30T04:03:33.634Z,20.95
2022-10-30T04:06:01.129Z,21.20
2022-10-30T04:08:29.006Z,20.80
2022-10-30T04:10:57.836Z,21.90
2022-10-30T04:13:25.650Z,21.33
2022-10-30T04:15:56.345Z,22.83
2022-10-30T04:18:26.139Z,21.95
2022-10-30T04:20:53.796Z,21.40
2022-10-30T04:23:22.106Z,20.77
2022-10-30T04:25:49.978Z,21.58
2022-10-30T04:28:18.012Z,19.85
2022-10-30T04:30:47.016Z,19.83
2022-10-30T04:33:15.214Z,22.15
2022-10-30T04:35:43.679Z,20.83
2022-10-30T04:38:14.463Z,21.80
2022-10-30T04:40:43.566Z,22.92
2022-10-30T04:43:12.259Z,21.27
2022-10-30T04:45:40.699Z,20.85
2022-10-30T04:48:12.728Z,19.63
2022-10-30T04:50:40.422Z,20.23
2022-10-30T04:53:18.889Z,20.70
2022-10-30T04:55:46.891Z,21.00
2022-10-30T04:58:15.151Z,19.67
2022-10-30T05:00:43.536Z,19.50
2022-10-30T05:03:22.271Z,20.95
2022-10-30T05:06:19.468Z,19.15
2022-10-30T05:08:47.125Z,18.70
2022-10-30T05:11:16.961Z,19.02
2022-10-30T05:13:44.501Z,19.80
2022-10-30T05:16:12.045Z,18.30
2022-10-30T05:18:40.084Z,19.55
2022-10-30T05:21:07.567Z,18.15
2022-10-30T05:23:35.143Z,19.70
2022-10-30T05:26:03.592Z,20.03
2022-10-30T05:28:31.182Z,20.02
2022-10-30T05:30:58.995Z,19.50
2022-10-30T05:33:28.915Z,19.60
2022-10-30T05:35:57.042Z,20.73
2022-10-30T05:38:24.989Z,18.53
2022-10-30T05:40:53.530Z,19.17
2022-10-30T05:43:20.984Z,18.27
2022-10-30T05:45:51.515Z,18.12
2022-10-30T05:48:19.207Z,19.05
2022-10-30T05:50:47.045Z,18.57
2022-10-30T05:53:15.578Z,19.42
2022-10-30T05:55:44.049Z,21.30
2022-10-30T05:58:11.825Z,17.95
2022-10-30T06:00:41.300Z,18.75
2022-10-30T06:03:11.940Z,18.47
2022-10-30T06:05:40.800Z,18.50
2022-10-30T06:08:08.386Z,19.52
2022-10-30T06:10:36.934Z,18.55
2022-10-30T06:13:06.490Z,18.42
2022-10-30T06:15:34.544Z,17.70
2022-10-30T06:18:03.184Z,17.70
2022-10-30T06:20:31.178Z,17.00
2022-10-30T06:23:04.198Z,17.35
2022-10-30T06:25:40.409Z,17.25
2022-10-30T06:28:13.712Z,16.83
2022-10-30T06:30:41.656Z,17.50
2022-10-30T06:33:09.869Z,18.33
2022-10-30T06:35:38.055Z,16.98
2022-10-30T06:38:06.234Z,17.35
2022-10-30T06:40:35.550Z,18.07
2022-10-30T06:43:04.391Z,18.33
2022-10-30T06:45:32.243Z,18.80
2022-10-30T06:48:02.232Z,18.15
2022-10-30T06:50:32.469Z,18.30
2022-10-30T06:53:00.231Z,17.27
2022-10-30T06:55:28.448Z,17.40
2022-10-30T06:57:57.333Z,17.55
2022-10-30T07:00:25.685Z,17.65
2022-10-30T07:03:01.211Z,17.65
2022-10-30T07:05:29.986Z,17.30
2022-10-30T07:07:58.387Z,17.37
2022-10-30T07:10:26.045Z,18.27
2022-10-30T07:12:57.327Z,18.05
2022-10-30T07:15:29.705Z,17.05
2022-10-30T07:17:59.557Z,15.73
2022-10-30T07:20:29.636Z,17.12
2022-10-30T07:22:57.728Z,16.50
2022-10-30T07:25:25.195Z,15.43
2022-10-30T07:27:54.080Z,16.80
2022-10-30T07:33:02.987Z,16.23
2022-10-30T07:35:32.468Z,16.35
2022-10-30T07:38:06.389Z,16.80
2022-10-30T07:40:35.073Z,16.70
2022-10-30T07:43:05.339Z,16.43
2022-10-30T07:45:33.655Z,15.85
2022-10-30T07:48:03.779Z,16.90
2022-10-30T07:50:33.908Z,16.10
2022-10-30T07:53:01.648Z,18.60
2022-10-30T07:55:29.633Z,16.80
2022-10-30T07:57:58.480Z,19.70
2022-10-30T08:00:27.693Z,19.70
2022-10-30T08:02:57.684Z,18.77
2022-10-30T08:05:28.834Z,19.45
2022-10-30T08:07:58.905Z,20.10
2022-10-30T08:10:28.868Z,21.45
2022-10-30T08:12:56.746Z,21.33
2022-10-30T08:15:24.560Z,22.83
2022-10-30T08:17:52.493Z,23.65
2022-10-30T08:20:22.975Z,22.47
2022-10-30T08:22:52.683Z,23.80
2022-10-30T08:25:24.318Z,24.17
2022-10-30T08:28:00.522Z,24.83
2022-10-30T08:30:30.998Z,25.33
2022-10-30T08:33:00.295Z,25.83
2022-10-30T08:35:30.207Z,26.33
2022-10-30T08:38:00.534Z,26.00
2022-10-30T08:40:29.062Z,27.45
2022-10-30T08:42:57.944Z,27.48
2022-10-30T08:45:29.908Z,25.70
2022-10-30T08:48:01.505Z,28.50
2022-10-30T08:50:30.706Z,27.17
2022-10-30T08:53:06.843Z,27.15
2022-10-30T08:55:35.295Z,27.35
2022-10-30T08:58:03.370Z,26.93
2022-10-30T09:00:31.167Z,26.15
2022-10-30T09:02:59.907Z,30.10
2022-10-30T09:05:32.683Z,28.60
2022-10-30T09:08:02.304Z,27.83
2022-10-30T09:10:33.076Z,29.63
2022-10-30T09:13:02.552Z,30.75
2022-10-30T09:15:30.897Z,30.60
2022-10-30T09:18:01.855Z,31.25
2022-10-30T09:20:30.567Z,30.85
2022-10-30T09:22:59.162Z,31.20
2022-10-30T09:25:27.332Z,30.58
2022-10-30T09:27:56.267Z,30.55
2022-10-30T09:30:24.515Z,33.33
2022-10-30T09:33:00.742Z,31.33
2022-10-30T09:35:30.572Z,32.63
2022-10-30T09:37:58.428Z,31.60
2022-10-30T09:40:48.950Z,33.13
2022-10-30T09:43:55.769Z,32.13
2022-10-30T09:46:29.364Z,31.65
2022-10-30T09:49:22.127Z,31.93
2022-10-30T09:51:58.760Z,32.85
2022-10-30T09:54:57.376Z,32.55
2022-10-30T09:57:39.375Z,32.25
2022-10-30T10:00:12.267Z,32.08
2022-10-30T10:03:01.027Z,33.03
2022-10-30T10:05:38.600Z,31.77
2022-10-30T10:08:11.736Z,30.20
2022-10-30T10:10:44.013Z,31.50
2022-10-30T10:13:38.498Z,31.35
2022-10-30T10:16:20.177Z,33.03
2022-10-30T10:19:12.103Z,30.65
2022-10-30T10:21:46.273Z,34.15
2022-10-30T10:24:19.824Z,30.08
2022-10-30T10:27:44.031Z,30.45
2022-10-30T10:30:16.041Z,30.83
2022-10-30T10:36:03.673Z,31.83
2022-10-30T10:38:58.989Z,29.10
2022-10-30T10:41:53.946Z,31.33
2022-10-30T10:44:37.831Z,34.27
2022-10-30T10:47:43.912Z,32.58
2022-10-30T10:50:18.201Z,32.30
2022-10-30T10:52:54.574Z,30.10
2022-10-30T10:55:26.769Z,32.00
2022-10-30T10:57:58.173Z,30.23
2022-10-30T11:00:28.277Z,30.88
2022-10-30T11:03:19.626Z,33.25
2022-10-30T11:06:30.758Z,31.33
2022-10-30T11:09:24.628Z,32.63
2022-10-30T11:11:53.953Z,32.70
2022-10-30T11:14:23.881Z,30.33
2022-10-30T11:17:24.607Z,29.90
2022-10-30T11:20:05.848Z,30.73
2022-10-30T11:22:35.472Z,32.33
2022-10-30T11:25:19.922Z,30.97
2022-10-30T11:27:49.083Z,31.25
2022-10-30T11:30:21.814Z,31.27
2022-10-30T11:32:49.252Z,32.30
2022-10-30T11:35:19.070Z,30.25
2022-10-30T11:37:51.630Z,32.10
2022-10-30T11:40:21.641Z,31.23
2022-10-30T11:43:01.417Z,33.42
2022-10-30T11:45:34.675Z,33.47
2022-10-30T11:48:03.922Z,31.20
2022-10-30T11:50:32.659Z,32.60
2022-10-30T11:53:13.631Z,32.15
2022-10-30T11:55:45.649Z,30.92
2022-10-30T11:58:31.919Z,32.83
2022-10-30T12:01:09.213Z,34.85
2022-10-30T12:03:42.018Z,31.13
2022-10-30T12:06:19.400Z,30.65
2022-10-30T12:09:03.130Z,32.83
2022-10-30T12:11:34.921Z,33.10
2022-10-30T12:14:03.074Z,31.55
2022-10-30T12:16:30.921Z,29.87
2022-10-30T12:19:03.858Z,31.50
2022-10-30T12:21:53.917Z,30.02
2022-10-30T12:24:31.795Z,30.40
2022-10-30T12:27:04.579Z,29.67
2022-10-30T12:30:08.411Z,30.07
2022-10-30T12:32:59.122Z,29.60
2022-10-30T12:35:47.065Z,29.48
2022-10-30T12:38:33.177Z,30.50
2022-10-30T12:41:15.870Z,29.75
2022-10-30T12:43:48.627Z,29.37
2022-10-30T12:46:30.729Z,30.17
2022-10-30T12:49:14.674Z,31.42
2022-10-30T12:52:00.478Z,32.75
2022-10-30T12:54:50.733Z,34.72
2022-10-30T12:57:21.270Z,31.03
2022-10-30T12:59:57.699Z,32.30
2022-10-30T13:02:47.012Z,33.50
2022-10-30T13:05:37.722Z,32.28
2022-10-30T13:08:59.554Z,32.22
2022-10-30T13:11:36.874Z,32.33
2022-10-30T13:14:13.594Z,31.62
2022-10-30T13:16:42.170Z,32.63
2022-10-30T13:19:12.016Z,34.50
2022-10-30T13:21:52.951Z,34.28
2022-10-30T13:24:27.962Z,34.13
2022-10-30T13:27:04.388Z,35.78
2022-10-30T13:29:39.926Z,33.05
2022-10-30T13:32:39.264Z,32.65
2022-10-30T13:35:17.950Z,35.05
2022-10-30T13:37:55.055Z,31.63
2022-10-30T13:40:44.569Z,31.70
2022-10-30T13:43:15.799Z,31.85
2022-10-30T13:46:37.909Z,33.92
2022-10-30T13:49:32.978Z,36.83
2022-10-30T13:52:06.559Z,42.90
2022-10-30T13:54:36.632Z,44.85
2022-10-30T13:57:10.497Z,36.67
2022-10-30T13:59:37.936Z,32.95
2022-10-30T14:02:25.935Z,33.17
2022-10-30T14:05:03.891Z,29.30
2022-10-30T14:07:40.864Z,29.48
2022-10-30T14:10:13.200Z,31.25
2022-10-30T14:12:52.520Z,28.58
2022-10-30T14:15:34.493Z,31.37
2022-10-30T14:18:14.221Z,34.53
2022-10-30T14:20:46.505Z,31.98
2022-10-30T14:23:16.186Z,30.98
2022-10-30T14:25:44.205Z,30.20
2022-10-30T14:28:21.158Z,30.08
2022-10-30T14:31:02.147Z,35.13
2022-10-30T14:33:56.950Z,30.15
2022-10-30T14:36:46.486Z,29.83
2022-10-30T14:39:13.862Z,34.60
2022-10-30T14:41:56.247Z,38.05
2022-10-30T14:44:35.792Z,33.17
2022-10-30T14:47:20.861Z,32.88
2022-10-30T14:49:56.546Z,37.55
2022-10-30T14:52:40.870Z,34.85
2022-10-30T14:55:48.696Z,35.83
2022-10-30T14:58:21.252Z,34.30
2022-10-30T15:00:49.121Z,35.00
2022-10-30T15:03:26.400Z,34.60
2022-10-30T15:06:00.619Z,33.42
2022-10-30T15:08:40.561Z,31.92
2022-10-30T15:11:18.789Z,30.67
2022-10-30T15:13:52.360Z,33.03
2022-10-30T15:16:21.262Z,31.27
2022-10-30T15:18:58.110Z,33.70
2022-10-30T15:21:29.499Z,33.38
2022-10-30T15:23:58.729Z,43.63
2022-10-30T15:26:33.116Z,39.67
2022-10-30T15:29:01.894Z,36.47
2022-10-30T15:31:29.905Z,38.58
2022-10-30T15:33:58.143Z,38.95
2022-10-30T15:36:28.899Z,40.80
2022-10-30T15:39:13.728Z,36.00
2022-10-30T15:42:01.923Z,33.75
2022-10-30T15:44:32.738Z,37.63
2022-10-30T15:47:02.069Z,35.67
2022-10-30T15:49:36.480Z,35.63
2022-10-30T15:52:33.663Z,41.72
2022-10-30T15:55:15.000Z,39.97
2022-10-30T15:58:08.159Z,40.72
2022-10-30T16:00:37.649Z,54.38
2022-10-30T16:03:12.972Z,42.20
2022-10-30T16:05:40.745Z,38.83
2022-10-30T16:08:17.855Z,34.58
2022-10-30T16:10:45.613Z,40.08
2022-10-30T16:13:19.128Z,39.83
2022-10-30T16:15:47.737Z,39.30
2022-10-30T16:18:20.330Z,41.13
2022-10-30T16:20:53.426Z,38.28
2022-10-30T16:23:21.761Z,41.58
2022-10-30T16:25:54.855Z,38.33
2022-10-30T16:28:32.961Z,35.70
2022-10-30T16:31:02.498Z,38.92
2022-10-30T16:33:31.299Z,41.75
2022-10-30T16:36:00.136Z,37.33
2022-10-30T16:38:29.940Z,37.60
2022-10-30T16:40:57.990Z,38.00
2022-10-30T16:43:27.165Z,42.97
2022-10-30T16:45:56.556Z,40.95
2022-10-30T16:48:28.909Z,37.95
2022-10-30T16:51:01.719Z,34.33
2022-10-30T16:53:30.101Z,39.57
2022-10-30T16:55:58.839Z,42.70
2022-10-30T16:58:30.882Z,40.38
2022-10-30T17:01:04.832Z,45.20
2022-10-30T17:03:37.644Z,44.67
2022-10-30T17:06:12.252Z,44.33
2022-10-30T17:08:42.593Z,44.13
2022-10-30T17:11:19.059Z,42.45
2022-10-30T17:13:52.633Z,45.08
2022-10-30T17:16:26.515Z,41.10
2022-10-30T17:19:01.953Z,38.63
2022-10-30T17:21:38.461Z,36.17
2022-10-30T17:24:06.310Z,37.20
2022-10-30T17:26:39.023Z,40.50
2022-10-30T17:29:06.523Z,38.72
2022-10-30T17:31:37.416Z,37.20
2022-10-30T17:34:17.746Z,38.92
2022-10-30T17:36:47.276Z,51.85
2022-10-30T17:39:15.304Z,40.45
2022-10-30T17:41:43.578Z,40.65
2022-10-30T17:44:19.955Z,40.40
2022-10-30T17:46:47.504Z,39.72
2022-10-30T17:49:25.212Z,37.95
2022-10-30T17:51:53.153Z,41.63
2022-10-30T17:54:20.986Z,45.78
2022-10-30T17:56:48.526Z,52.70
2022-10-30T17:59:16.291Z,42.35
2022-10-30T18:01:44.369Z,38.95
2022-10-30T18:04:20.705Z,36.70
2022-10-30T18:06:49.293Z,37.22
2022-10-30T18:09:17.077Z,39.27
2022-10-30T18:11:44.648Z,36.55
2022-10-30T18:14:12.472Z,37.50
2022-10-30T18:16:40.286Z,40.92
2022-10-30T18:19:10.440Z,42.58
2022-10-30T18:21:38.292Z,41.53
2022-10-30T18:24:11.601Z,39.58
2022-10-30T18:26:40.723Z,38.75
2022-10-30T18:29:09.736Z,37.28
2022-10-30T18:31:39.589Z,35.65
2022-10-30T18:34:15.041Z,37.57
2022-10-30T18:36:43.342Z,37.25
2022-10-30T18:39:13.794Z,36.28
2022-10-30T18:41:44.328Z,36.65
2022-10-30T18:44:18.712Z,43.20
2022-10-30T18:46:46.549Z,37.63
2022-10-30T18:49:14.615Z,40.28
2022-10-30T18:51:42.247Z,44.47
2022-10-30T18:57:27.289Z,41.28
2022-10-30T18:59:55.270Z,42.63
2022-10-30T19:02:24.040Z,38.17
2022-10-30T19:04:51.819Z,37.70
2022-10-30T19:07:19.796Z,40.75
2022-10-30T19:09:47.588Z,33.50
2022-10-30T19:12:15.126Z,32.93
2022-10-30T19:14:43.123Z,31.55
2022-10-30T19:17:10.685Z,33.38
2022-10-30T19:19:38.453Z,33.53
2022-10-30T19:22:06.498Z,30.33
2022-10-30T19:24:34.024Z,29.80
2022-10-30T19:27:01.620Z,31.42
2022-10-30T19:29:29.451Z,31.92
2022-10-30T19:31:59.388Z,29.48
2022-10-30T19:34:26.949Z,30.48
2022-10-30T19:36:56.442Z,29.20
2022-10-30T19:39:24.147Z,33.50
2022-10-30T19:41:51.823Z,31.58
2022-10-30T19:44:19.785Z,30.17
2022-10-30T19:46:47.833Z,35.72
2022-10-30T19:49:17.692Z,34.17
2022-10-30T19:51:46.270Z,34.90
2022-10-30T19:54:14.105Z,30.52
2022-10-30T19:56:44.055Z,30.92
2022-10-30T19:59:13.635Z,32.50
2022-10-30T20:01:41.860Z,30.33
2022-10-30T20:04:10.374Z,30.05
2022-10-30T20:06:37.839Z,31.92
2022-10-30T20:09:05.535Z,29.95
2022-10-30T20:11:33.484Z,28.85
2022-10-30T20:14:02.312Z,28.60
2022-10-30T20:16:30.038Z,29.35
2022-10-30T20:18:57.794Z,28.10
2022-10-30T20:21:27.536Z,28.50
2022-10-30T20:23:55.369Z,25.88
2022-10-30T20:26:26.870Z,27.87
2022-10-30T20:28:55.224Z,26.60
2022-10-30T20:31:23.129Z,26.92
2022-10-30T20:33:50.829Z,26.17
2022-10-30T20:36:18.762Z,25.73
2022-10-30T20:38:46.671Z,26.20
2022-10-30T20:41:21.131Z,27.77
2022-10-30T20:43:52.667Z,27.13
2022-10-30T20:46:21.144Z,27.62
2022-10-30T20:48:49.047Z,30.73
2022-10-30T20:51:16.984Z,25.60
2022-10-30T20:53:44.757Z,27.42
2022-10-30T20:56:12.607Z,27.27
2022-10-30T20:58:42.205Z,26.75
2022-10-30T21:01:10.863Z,25.08
2022-10-30T21:03:38.741Z,25.93
2022-10-30T21:06:09.718Z,25.92
2022-10-30T21:08:37.893Z,26.30
2022-10-30T21:11:07.599Z,25.88
2022-10-30T21:13:36.163Z,26.02
2022-10-30T21:16:06.461Z,26.37
2022-10-30T21:18:34.579Z,26.90
2022-10-30T21:21:06.904Z,27.52
2022-10-30T21:23:34.916Z,25.58
2022-10-30T21:26:07.258Z,25.48
2022-10-30T21:28:34.950Z,24.77
2022-10-30T21:31:03.668Z,26.05
2022-10-30T21:33:32.811Z,25.95
2022-10-30T21:36:12.634Z,24.80
2022-10-30T21:38:42.213Z,26.12
2022-10-30T21:41:12.514Z,26.30
2022-10-30T21:43:40.004Z,25.83
2022-10-30T21:46:09.409Z,25.80
2022-10-30T21:48:37.816Z,26.65
2022-10-30T21:51:14.383Z,25.88
2022-10-30T21:53:42.214Z,24.67
2022-10-30T21:56:12.275Z,25.60
2022-10-30T21:58:40.351Z,25.52
2022-10-30T22:01:20.130Z,25.92
2022-10-30T22:03:48.587Z,27.58
2022-10-30T22:06:18.778Z,27.00
2022-10-30T22:08:47.424Z,27.33
2022-10-30T22:11:15.710Z,26.00
2022-10-30T22:13:43.422Z,23.98
2022-10-30T22:16:12.950Z,25.50
2022-10-30T22:18:40.976Z,25.00
2022-10-30T22:21:11.065Z,24.95
2022-10-30T22:23:39.258Z,24.25
2022-10-30T22:26:12.067Z,25.40
2022-10-30T22:28:39.433Z,26.15
2022-10-30T22:31:09.750Z,25.83
2022-10-30T22:33:37.202Z,23.58
2022-10-30T22:36:11.955Z,26.48
2022-10-30T22:38:39.793Z,23.42
2022-10-30T22:41:21.361Z,24.98
2022-10-30T22:43:49.251Z,22.57
2022-10-30T22:46:17.964Z,23.10
2022-10-30T22:48:46.054Z,22.50
2022-10-30T22:51:16.770Z,24.90
2022-10-30T22:53:46.299Z,27.25
2022-10-30T22:56:15.537Z,25.83
2022-10-30T22:58:44.420Z,24.98
2022-10-30T23:01:16.054Z,26.45
2022-10-30T23:03:44.688Z,27.20
2022-10-30T23:06:13.253Z,27.42
2022-10-30T23:08:40.935Z,26.03
2022-10-30T23:11:08.983Z,26.12
2022-10-30T23:13:36.960Z,25.85
2022-10-30T23:16:07.142Z,24.75
2022-10-30T23:18:35.226Z,24.87
2022-10-30T23:21:12.722Z,26.33
2022-10-30T23:23:40.899Z,29.23
2022-10-30T23:26:12.825Z,28.30
2022-10-30T23:28:40.659Z,27.23
2022-10-30T23:31:19.613Z,28.80
2022-10-30T23:33:51.966Z,27.80
2022-10-30T23:36:19.456Z,28.95
2022-10-30T23:39:08.771Z,30.20
2022-10-30T23:41:36.171Z,28.42
2022-10-30T23:44:10.061Z,29.70
2022-10-30T23:46:37.899Z,30.27
2022-10-30T23:49:06.003Z,30.05
2022-10-30T23:51:33.933Z,28.90
2022-10-30T23:54:01.447Z,27.85
2022-10-30T23:56:32.174Z,27.73
2022-10-30T23:59:00.402Z,28.10
